AirNav   Air Wisconsin pilot careers
 
 978 users online  

AZ72 Police & Public Safety Building Heliport
Phoenix, Arizona, USA

GOING TO PHOENIX?


FAA INFORMATION EFFECTIVE 04 JANUARY 2018

Location

FAA Identifier: AZ72
Lat/Long: 33-26-55.1570N / 112-04-55.5350W
33-26.919283N / 112-04.925583W
33.4486547 / -112.0820931
(estimated)
Elevation: 1146 ft. / 349 m (estimated)
Variation: 13E (1985)
From city: 1 mile W of PHOENIX, AZ
Time zone: UTC -7 (year round; does not observe DST)
Zip code: 85003

Heliport Operations

Heliport use: Private use. Permission required prior to landing
Activation date: 11/1983
Control tower: no
ARTCC: ALBUQUERQUE CENTER
FSS: PRESCOTT FLIGHT SERVICE STATION
Attendance: UNATNDD
Wind indicator: yes
Segmented circle: no
Lights: FOR PERIMETER LIGHTS CALL 602-262-6474.

Heliport Communications

WX ASOS at PHX (4 nm E): PHONE 602-231-8557
WX AWOS-3 at GEU (12 nm NW): 119.425 (623-877-8609)
WX ASOS at SDL (14 nm NE): PHONE 480-483-3049
WX ASOS at DVT (14 nm N): PHONE 623-587-7764
WX AWOS-3 at CHD (17 nm SE): 128.325 (480-814-9952)

Nearby radio navigation aids

VOR radial/distance  VOR name  Freq  Var
PXRr268/5.7PHOENIX VORTAC115.6012E
IWAr279/23.3WILLIE VORTAC113.3013E
TFDr334/34.9STANFIELD VORTAC114.8012E
BXKr076/37.2BUCKEYE VORTAC110.6014E

 
NDB name  Hdg/Dist  Freq  Var  ID
CHANDLER297/17.640712ECHD -.-. .... -..

Heliport Services

Runway Information

Helipad H1

Dimensions: 40 x 40 ft. / 12 x 12 m
Surface: concrete
Runway edge lights: HELIPAD LGTD WITH PERIMETER LIGHTS.
Latitude: 33-26.919333N
Longitude: 112-04.925667W
Elevation: 1146.0 ft.
Traffic pattern: leftleft

Heliport Ownership and Management from official FAA records

Ownership: Publicly-owned
Owner: PHOENIX POLICE DEPARTMENT
620 WEST WASHINGTON
PHOENIX, AZ 85003-2187
Phone 602-262-6747
Manager: JOE YAHNER
620 WEST WASHINGTON
PHOENIX, AZ 85003-2187
Phone 602-262-6747

Instrument Procedures

There are no published instrument procedures at AZ72.

Some nearby airports with instrument procedures:

KPHX - Phoenix Sky Harbor International Airport (4 nm E)
KGEU - Glendale Municipal Airport (12 nm NW)
P19 - Stellar Airpark (12 nm SE)
KSDL - Scottsdale Airport (14 nm NE)
KDVT - Phoenix Deer Valley Airport (14 nm N)
KGYR - Phoenix Goodyear Airport (15 nm W)
KLUF - Luke Air Force Base (16 nm W)
KCHD - Chandler Municipal Airport (17 nm SE)
KFFZ - Falcon Field Airport (18 nm E)
 
Loc | Ops | Rwys | IFR | FBO | Links
Com | Nav | Svcs | Stats | Notes


 
Area around AZ72 (Police & Public Safety Building Heliport)
 
Road maps at: MapQuest Bing Google
 
Aerial photo
No photo
 
Sectional chart

 
Airport distance calculator
Flying to Police & Public Safety Building Heliport? Find the distance to fly.

From to AZ72

Sunrise and sunset
Times for 21-Jan-2018
 Local
(UTC-7)
 Zulu
(UTC)
Morning civil twilight07:0514:05
Sunrise07:3214:32
Sunset17:4800:48
Evening civil twilight18:1501:15

Current date and time
Zulu (UTC)  21-Jan-2018 23:49:35
Local (UTC-7)  21-Jan-2018 16:49:35
 
METAR
KPHX 
2nm SE 
212251Z 35010G16KT 10SM SCT250 14/M08 A3016 RMK AO2 SLP209 T01441083
KGEU 
12nm NW 
212247Z 27007KT 10SM FEW200 SCT250 15/M08 A3018
KSDL 
13nm NE 
212253Z AUTO 26005KT 10SM CLR 13/M07 A3018 RMK AO2 SLP213 T01281067
KDVT 
14nm N 
212253Z AUTO 18003KT 10SM CLR 13/M08 A3015 RMK AO2 SLP207 T01281078
KGYR 
14nm W 
212247Z 30008G15KT 10SM SCT200 BKN250 15/M09 A3018
KLUF 
15nm W 
212258Z AUTO 30005KT 10SM CLR 15/M09 A3015 RMK AO2 SLP209 T01471094 $
KCHD 
17nm SE 
212247Z 29008KT 10SM CLR 14/M09 A3018
KFFZ 
18nm E 
212316Z 30008KT 40SM SCT200 13/M08 A3018
TAF
KPHX 
2nm SE 
212038Z 2121/2224 29008KT P6SM FEW250 FM220600 09005KT P6SM SCT200 BKN250 FM222200 31004KT P6SM BKN200
KSDL 
13nm NE 
211724Z 2118/2218 VRB04KT P6SM SKC FM211900 27006KT P6SM SKC FM220300 VRB03KT P6SM SCT200 BKN250
KLUF 
15nm W 
212001Z 2120/2302 27009KT 9999 FEW200 QNH3013INS BECMG 2206/2207 04007KT 9999 SCT180 QNH3011INS TX16/2220Z TN01/2215Z
NOTAMs
Click for the latest NOTAMs
NOTAMs are issued by the DoD/FAA and will open in a separate window not controlled by AirNav.

 

 
 

Would you like to see your business listed on this page?

 If your business provides an interesting product or service to pilots, flight crews, aircraft, or users of the Police & Public Safety Building Heliport, you should consider listing it here.  To start the listing process, click on the button below
 
Add a business
 

Other Pages about Police & Public Safety Building Heliport

Update a link
 
Copyright © AirNav, LLC. All rights reserved. Privacy Policy  Contact